sensor_id;sensor_type;location;lat;lon;timestamp;P1;durP1;ratioP1;P2;durP2;ratioP2
11100;SDS011;5604;50.722;7.078;2023-08-07T00:01:13;11.73;;;4.20;;
11100;SDS011;5604;50.722;7.078;2023-08-07T00:03:42;13.47;;;3.33;;
11100;SDS011;5604;50.722;7.078;2023-08-07T00:06:11;9.37;;;3.27;;
11100;SDS011;5604;50.722;7.078;2023-08-07T00:08:39;12.07;;;3.37;;
11100;SDS011;5604;50.722;7.078;2023-08-07T00:11:07;9.53;;;3.47;;
11100;SDS011;5604;50.722;7.078;2023-08-07T00:13:36;12.13;;;3.40;;
11100;SDS011;5604;50.722;7.078;2023-08-07T00:16:04;10.73;;;3.43;;
11100;SDS011;5604;50.722;7.078;2023-08-07T00:18:32;9.70;;;3.17;;
11100;SDS011;5604;50.722;7.078;2023-08-07T00:21:00;15.53;;;3.70;;
11100;SDS011;5604;50.722;7.078;2023-08-07T00:23:30;11.17;;;3.50;;
11100;SDS011;5604;50.722;7.078;2023-08-07T00:25:58;11.30;;;3.33;;
11100;SDS011;5604;50.722;7.078;2023-08-07T00:28:26;10.13;;;3.27;;
11100;SDS011;5604;50.722;7.078;2023-08-07T00:30:54;12.63;;;3.13;;
11100;SDS011;5604;50.722;7.078;2023-08-07T00:33:23;11.43;;;3.10;;
11100;SDS011;5604;50.722;7.078;2023-08-07T00:35:51;10.53;;;3.40;;
11100;SDS011;5604;50.722;7.078;2023-08-07T00:38:19;7.63;;;2.87;;
11100;SDS011;5604;50.722;7.078;2023-08-07T00:40:49;8.17;;;3.07;;
11100;SDS011;5604;50.722;7.078;2023-08-07T00:43:17;9.50;;;3.10;;
11100;SDS011;5604;50.722;7.078;2023-08-07T00:45:45;12.77;;;3.20;;
11100;SDS011;5604;50.722;7.078;2023-08-07T00:48:14;13.57;;;3.90;;
11100;SDS011;5604;50.722;7.078;2023-08-07T00:50:43;9.07;;;3.20;;
11100;SDS011;5604;50.722;7.078;2023-08-07T00:53:13;8.23;;;3.63;;
11100;SDS011;5604;50.722;7.078;2023-08-07T00:55:41;9.43;;;3.37;;
11100;SDS011;5604;50.722;7.078;2023-08-07T00:58:11;9.23;;;3.87;;
11100;SDS011;5604;50.722;7.078;2023-08-07T01:00:40;5.70;;;3.07;;
11100;SDS011;5604;50.722;7.078;2023-08-07T01:03:09;14.33;;;4.00;;
11100;SDS011;5604;50.722;7.078;2023-08-07T01:05:39;10.67;;;3.90;;
11100;SDS011;5604;50.722;7.078;2023-08-07T01:08:07;8.23;;;3.40;;
11100;SDS011;5604;50.722;7.078;2023-08-07T01:10:42;8.20;;;3.70;;
11100;SDS011;5604;50.722;7.078;2023-08-07T01:13:18;11.20;;;3.40;;
11100;SDS011;5604;50.722;7.078;2023-08-07T01:15:50;10.93;;;4.70;;
11100;SDS011;5604;50.722;7.078;2023-08-07T01:18:20;7.70;;;3.60;;
11100;SDS011;5604;50.722;7.078;2023-08-07T01:20:49;9.73;;;3.53;;
11100;SDS011;5604;50.722;7.078;2023-08-07T01:23:18;7.60;;;3.53;;
11100;SDS011;5604;50.722;7.078;2023-08-07T01:25:46;8.97;;;3.37;;
11100;SDS011;5604;50.722;7.078;2023-08-07T01:28:16;9.07;;;3.53;;
11100;SDS011;5604;50.722;7.078;2023-08-07T01:30:48;11.97;;;3.57;;
11100;SDS011;5604;50.722;7.078;2023-08-07T01:33:19;11.37;;;3.57;;
11100;SDS011;5604;50.722;7.078;2023-08-07T01:35:53;11.10;;;3.60;;
11100;SDS011;5604;50.722;7.078;2023-08-07T01:38:23;10.13;;;3.70;;
11100;SDS011;5604;50.722;7.078;2023-08-07T01:40:54;17.23;;;3.50;;
11100;SDS011;5604;50.722;7.078;2023-08-07T01:43:22;7.90;;;3.13;;
11100;SDS011;5604;50.722;7.078;2023-08-07T01:45:50;16.93;;;3.37;;
11100;SDS011;5604;50.722;7.078;2023-08-07T01:48:18;10.93;;;3.33;;
11100;SDS011;5604;50.722;7.078;2023-08-07T01:50:46;10.60;;;3.20;;
11100;SDS011;5604;50.722;7.078;2023-08-07T01:53:14;7.67;;;2.97;;
11100;SDS011;5604;50.722;7.078;2023-08-07T01:55:43;7.13;;;3.10;;
11100;SDS011;5604;50.722;7.078;2023-08-07T01:58:11;13.00;;;3.47;;
11100;SDS011;5604;50.722;7.078;2023-08-07T02:00:40;11.47;;;3.97;;
11100;SDS011;5604;50.722;7.078;2023-08-07T02:03:08;8.87;;;3.23;;
11100;SDS011;5604;50.722;7.078;2023-08-07T02:05:36;11.70;;;3.50;;
11100;SDS011;5604;50.722;7.078;2023-08-07T02:08:04;7.40;;;3.27;;
11100;SDS011;5604;50.722;7.078;2023-08-07T02:10:32;8.20;;;3.60;;
11100;SDS011;5604;50.722;7.078;2023-08-07T02:13:02;9.23;;;3.63;;
11100;SDS011;5604;50.722;7.078;2023-08-07T02:15:31;7.83;;;3.27;;
11100;SDS011;5604;50.722;7.078;2023-08-07T02:18:01;10.17;;;3.50;;
11100;SDS011;5604;50.722;7.078;2023-08-07T02:20:29;11.97;;;3.17;;
11100;SDS011;5604;50.722;7.078;2023-08-07T02:22:57;10.23;;;3.60;;
11100;SDS011;5604;50.722;7.078;2023-08-07T02:25:27;9.47;;;3.60;;
11100;SDS011;5604;50.722;7.078;2023-08-07T02:27:55;13.97;;;4.33;;
11100;SDS011;5604;50.722;7.078;2023-08-07T02:30:25;13.87;;;4.00;;
11100;SDS011;5604;50.722;7.078;2023-08-07T02:32:53;11.40;;;4.10;;
11100;SDS011;5604;50.722;7.078;2023-08-07T02:35:21;14.00;;;3.33;;
11100;SDS011;5604;50.722;7.078;2023-08-07T02:37:50;5.87;;;3.57;;
11100;SDS011;5604;50.722;7.078;2023-08-07T02:40:18;8.60;;;3.63;;
11100;SDS011;5604;50.722;7.078;2023-08-07T02:42:46;9.07;;;3.67;;
11100;SDS011;5604;50.722;7.078;2023-08-07T02:45:14;7.00;;;3.50;;
11100;SDS011;5604;50.722;7.078;2023-08-07T02:47:43;10.80;;;3.30;;
11100;SDS011;5604;50.722;7.078;2023-08-07T02:50:12;8.37;;;3.70;;
11100;SDS011;5604;50.722;7.078;2023-08-07T02:52:40;7.90;;;3.40;;
11100;SDS011;5604;50.722;7.078;2023-08-07T02:55:11;7.07;;;3.40;;
11100;SDS011;5604;50.722;7.078;2023-08-07T02:57:39;9.63;;;3.20;;
11100;SDS011;5604;50.722;7.078;2023-08-07T03:00:08;10.07;;;3.20;;
11100;SDS011;5604;50.722;7.078;2023-08-07T03:02:37;11.20;;;3.77;;
11100;SDS011;5604;50.722;7.078;2023-08-07T03:05:07;10.97;;;3.23;;
11100;SDS011;5604;50.722;7.078;2023-08-07T03:07:36;11.53;;;2.90;;
11100;SDS011;5604;50.722;7.078;2023-08-07T03:10:04;19.07;;;4.10;;
11100;SDS011;5604;50.722;7.078;2023-08-07T03:12:33;10.30;;;3.13;;
11100;SDS011;5604;50.722;7.078;2023-08-07T03:15:01;12.33;;;3.33;;
11100;SDS011;5604;50.722;7.078;2023-08-07T03:17:30;14.83;;;3.83;;
11100;SDS011;5604;50.722;7.078;2023-08-07T03:19:58;10.70;;;3.23;;
11100;SDS011;5604;50.722;7.078;2023-08-07T03:22:27;8.47;;;3.03;;
11100;SDS011;5604;50.722;7.078;2023-08-07T03:24:55;8.13;;;3.20;;
11100;SDS011;5604;50.722;7.078;2023-08-07T03:27:23;10.33;;;3.33;;
11100;SDS011;5604;50.722;7.078;2023-08-07T03:29:51;7.77;;;2.80;;
11100;SDS011;5604;50.722;7.078;2023-08-07T03:32:22;9.10;;;3.50;;
11100;SDS011;5604;50.722;7.078;2023-08-07T03:34:50;11.27;;;3.73;;
11100;SDS011;5604;50.722;7.078;2023-08-07T03:37:19;8.07;;;3.27;;
11100;SDS011;5604;50.722;7.078;2023-08-07T03:39:48;10.63;;;3.67;;
11100;SDS011;5604;50.722;7.078;2023-08-07T03:42:16;5.80;;;3.00;;
11100;SDS011;5604;50.722;7.078;2023-08-07T03:44:46;11.03;;;4.00;;
11100;SDS011;5604;50.722;7.078;2023-08-07T03:47:14;12.40;;;4.23;;
11100;SDS011;5604;50.722;7.078;2023-08-07T03:49:44;12.87;;;3.33;;
11100;SDS011;5604;50.722;7.078;2023-08-07T03:52:12;10.77;;;3.40;;
11100;SDS011;5604;50.722;7.078;2023-08-07T03:54:40;11.60;;;3.97;;
11100;SDS011;5604;50.722;7.078;2023-08-07T03:57:09;10.87;;;4.00;;
11100;SDS011;5604;50.722;7.078;2023-08-07T03:59:37;10.40;;;4.03;;
11100;SDS011;5604;50.722;7.078;2023-08-07T04:02:05;13.73;;;3.63;;
11100;SDS011;5604;50.722;7.078;2023-08-07T04:04:33;10.33;;;3.27;;
11100;SDS011;5604;50.722;7.078;2023-08-07T04:07:02;8.17;;;3.10;;
11100;SDS011;5604;50.722;7.078;2023-08-07T04:09:30;7.47;;;3.57;;
11100;SDS011;5604;50.722;7.078;2023-08-07T04:11:59;8.03;;;2.90;;
11100;SDS011;5604;50.722;7.078;2023-08-07T04:14:28;7.47;;;3.17;;
11100;SDS011;5604;50.722;7.078;2023-08-07T04:16:56;7.47;;;3.70;;
11100;SDS011;5604;50.722;7.078;2023-08-07T04:19:25;5.37;;;3.20;;
11100;SDS011;5604;50.722;7.078;2023-08-07T04:21:53;8.67;;;3.47;;
11100;SDS011;5604;50.722;7.078;2023-08-07T04:24:21;7.03;;;3.40;;
11100;SDS011;5604;50.722;7.078;2023-08-07T04:26:50;7.63;;;3.20;;
11100;SDS011;5604;50.722;7.078;2023-08-07T04:29:18;9.17;;;3.53;;
11100;SDS011;5604;50.722;7.078;2023-08-07T04:31:47;8.83;;;3.73;;
11100;SDS011;5604;50.722;7.078;2023-08-07T04:34:15;9.50;;;3.40;;
11100;SDS011;5604;50.722;7.078;2023-08-07T04:36:43;7.80;;;3.70;;
11100;SDS011;5604;50.722;7.078;2023-08-07T04:39:11;8.67;;;3.70;;
11100;SDS011;5604;50.722;7.078;2023-08-07T04:41:39;7.90;;;3.53;;
11100;SDS011;5604;50.722;7.078;2023-08-07T04:44:07;8.03;;;3.50;;
11100;SDS011;5604;50.722;7.078;2023-08-07T04:46:36;5.90;;;3.77;;
11100;SDS011;5604;50.722;7.078;2023-08-07T04:49:05;8.50;;;3.87;;
11100;SDS011;5604;50.722;7.078;2023-08-07T04:51:33;9.37;;;3.97;;
11100;SDS011;5604;50.722;7.078;2023-08-07T04:54:01;13.57;;;4.20;;
11100;SDS011;5604;50.722;7.078;2023-08-07T04:56:30;7.80;;;3.50;;
11100;SDS011;5604;50.722;7.078;2023-08-07T04:58:58;8.97;;;4.13;;
11100;SDS011;5604;50.722;7.078;2023-08-07T05:01:27;9.87;;;3.60;;
11100;SDS011;5604;50.722;7.078;2023-08-07T05:03:55;8.20;;;3.70;;
11100;SDS011;5604;50.722;7.078;2023-08-07T05:06:25;11.70;;;3.93;;
11100;SDS011;5604;50.722;7.078;2023-08-07T05:08:53;8.57;;;3.57;;
11100;SDS011;5604;50.722;7.078;2023-08-07T05:11:22;10.83;;;3.90;;
11100;SDS011;5604;50.722;7.078;2023-08-07T05:13:50;7.93;;;3.33;;
11100;SDS011;5604;50.722;7.078;2023-08-07T05:16:18;8.57;;;3.73;;
11100;SDS011;5604;50.722;7.078;2023-08-07T05:18:46;8.23;;;3.47;;
11100;SDS011;5604;50.722;7.078;2023-08-07T05:21:16;7.10;;;3.40;;
11100;SDS011;5604;50.722;7.078;2023-08-07T05:23:46;10.87;;;3.30;;
11100;SDS011;5604;50.722;7.078;2023-08-07T05:26:14;8.57;;;3.10;;
11100;SDS011;5604;50.722;7.078;2023-08-07T05:28:44;8.03;;;2.93;;
11100;SDS011;5604;50.722;7.078;2023-08-07T05:31:12;8.33;;;3.00;;
11100;SDS011;5604;50.722;7.078;2023-08-07T05:33:40;10.87;;;3.40;;
11100;SDS011;5604;50.722;7.078;2023-08-07T05:36:08;10.80;;;3.77;;
11100;SDS011;5604;50.722;7.078;2023-08-07T05:38:36;7.63;;;3.87;;
11100;SDS011;5604;50.722;7.078;2023-08-07T05:41:05;8.57;;;3.17;;
11100;SDS011;5604;50.722;7.078;2023-08-07T05:43:33;10.13;;;3.40;;
11100;SDS011;5604;50.722;7.078;2023-08-07T05:46:01;10.93;;;3.67;;
11100;SDS011;5604;50.722;7.078;2023-08-07T05:48:29;7.57;;;3.70;;
11100;SDS011;5604;50.722;7.078;2023-08-07T05:50:57;11.40;;;3.37;;
11100;SDS011;5604;50.722;7.078;2023-08-07T05:53:26;11.27;;;3.70;;
11100;SDS011;5604;50.722;7.078;2023-08-07T05:55:54;7.80;;;3.10;;
11100;SDS011;5604;50.722;7.078;2023-08-07T05:58:24;6.40;;;3.03;;
11100;SDS011;5604;50.722;7.078;2023-08-07T06:00:52;9.43;;;2.73;;
11100;SDS011;5604;50.722;7.078;2023-08-07T06:03:20;9.10;;;3.10;;
11100;SDS011;5604;50.722;7.078;2023-08-07T06:05:48;12.77;;;3.30;;
11100;SDS011;5604;50.722;7.078;2023-08-07T06:08:16;5.50;;;2.80;;
11100;SDS011;5604;50.722;7.078;2023-08-07T06:10:44;12.27;;;3.33;;
11100;SDS011;5604;50.722;7.078;2023-08-07T06:13:12;6.30;;;2.90;;
11100;SDS011;5604;50.722;7.078;2023-08-07T06:16:01;6.40;;;2.70;;
11100;SDS011;5604;50.722;7.078;2023-08-07T06:18:29;7.23;;;2.87;;
11100;SDS011;5604;50.722;7.078;2023-08-07T06:20:57;9.83;;;4.17;;
11100;SDS011;5604;50.722;7.078;2023-08-07T06:23:25;6.07;;;2.93;;
11100;SDS011;5604;50.722;7.078;2023-08-07T06:25:53;6.47;;;2.93;;
11100;SDS011;5604;50.722;7.078;2023-08-07T06:28:25;7.13;;;3.10;;
11100;SDS011;5604;50.722;7.078;2023-08-07T06:30:53;9.17;;;3.30;;
11100;SDS011;5604;50.722;7.078;2023-08-07T06:33:22;6.07;;;2.77;;
11100;SDS011;5604;50.722;7.078;2023-08-07T06:35:52;4.50;;;2.47;;
11100;SDS011;5604;50.722;7.078;2023-08-07T06:38:20;7.40;;;2.70;;
11100;SDS011;5604;50.722;7.078;2023-08-07T06:40:48;4.10;;;2.60;;
11100;SDS011;5604;50.722;7.078;2023-08-07T06:43:16;8.97;;;3.67;;
11100;SDS011;5604;50.722;7.078;2023-08-07T06:45:46;8.63;;;3.60;;
11100;SDS011;5604;50.722;7.078;2023-08-07T06:48:14;6.40;;;3.20;;
11100;SDS011;5604;50.722;7.078;2023-08-07T06:50:43;10.53;;;3.37;;
11100;SDS011;5604;50.722;7.078;2023-08-07T06:53:11;6.43;;;3.27;;
11100;SDS011;5604;50.722;7.078;2023-08-07T06:55:40;8.93;;;4.03;;
11100;SDS011;5604;50.722;7.078;2023-08-07T06:58:08;10.03;;;3.30;;
11100;SDS011;5604;50.722;7.078;2023-08-07T07:00:36;5.33;;;3.10;;
11100;SDS011;5604;50.722;7.078;2023-08-07T07:03:05;7.87;;;3.37;;
11100;SDS011;5604;50.722;7.078;2023-08-07T07:05:34;6.23;;;3.33;;
11100;SDS011;5604;50.722;7.078;2023-08-07T07:08:03;8.63;;;3.63;;
11100;SDS011;5604;50.722;7.078;2023-08-07T07:10:32;9.17;;;3.50;;
11100;SDS011;5604;50.722;7.078;2023-08-07T07:13:00;11.17;;;4.10;;
11100;SDS011;5604;50.722;7.078;2023-08-07T07:15:28;10.47;;;3.30;;
11100;SDS011;5604;50.722;7.078;2023-08-07T07:17:56;7.77;;;3.33;;
11100;SDS011;5604;50.722;7.078;2023-08-07T07:20:24;5.37;;;3.20;;
11100;SDS011;5604;50.722;7.078;2023-08-07T07:22:53;7.63;;;3.30;;
11100;SDS011;5604;50.722;7.078;2023-08-07T07:25:22;6.33;;;3.23;;
11100;SDS011;5604;50.722;7.078;2023-08-07T07:27:50;7.63;;;3.57;;
11100;SDS011;5604;50.722;7.078;2023-08-07T07:30:19;8.23;;;3.40;;
11100;SDS011;5604;50.722;7.078;2023-08-07T07:32:46;8.60;;;3.43;;
11100;SDS011;5604;50.722;7.078;2023-08-07T07:35:15;10.50;;;4.00;;
11100;SDS011;5604;50.722;7.078;2023-08-07T07:37:43;7.77;;;3.03;;
11100;SDS011;5604;50.722;7.078;2023-08-07T07:40:11;10.87;;;3.90;;
11100;SDS011;5604;50.722;7.078;2023-08-07T07:42:41;4.80;;;2.97;;
11100;SDS011;5604;50.722;7.078;2023-08-07T07:45:09;9.03;;;3.37;;
11100;SDS011;5604;50.722;7.078;2023-08-07T07:47:38;8.07;;;3.70;;
11100;SDS011;5604;50.722;7.078;2023-08-07T07:50:06;9.30;;;2.90;;
11100;SDS011;5604;50.722;7.078;2023-08-07T07:52:35;8.33;;;3.23;;
11100;SDS011;5604;50.722;7.078;2023-08-07T07:55:04;7.30;;;3.30;;
11100;SDS011;5604;50.722;7.078;2023-08-07T07:57:32;10.50;;;3.80;;
11100;SDS011;5604;50.722;7.078;2023-08-07T08:00:02;8.80;;;3.37;;
11100;SDS011;5604;50.722;7.078;2023-08-07T08:02:39;10.43;;;3.20;;
11100;SDS011;5604;50.722;7.078;2023-08-07T08:05:09;8.33;;;3.00;;
11100;SDS011;5604;50.722;7.078;2023-08-07T08:07:38;6.83;;;3.03;;
11100;SDS011;5604;50.722;7.078;2023-08-07T08:10:07;8.67;;;3.40;;
11100;SDS011;5604;50.722;7.078;2023-08-07T08:12:36;10.80;;;3.90;;
11100;SDS011;5604;50.722;7.078;2023-08-07T08:15:06;9.17;;;3.77;;
11100;SDS011;5604;50.722;7.078;2023-08-07T08:17:37;8.87;;;2.97;;
11100;SDS011;5604;50.722;7.078;2023-08-07T08:20:06;8.87;;;3.50;;
11100;SDS011;5604;50.722;7.078;2023-08-07T08:22:35;8.60;;;3.27;;
11100;SDS011;5604;50.722;7.078;2023-08-07T08:25:03;11.43;;;3.60;;
11100;SDS011;5604;50.722;7.078;2023-08-07T08:27:33;7.83;;;3.50;;
11100;SDS011;5604;50.722;7.078;2023-08-07T08:30:01;7.87;;;3.67;;
11100;SDS011;5604;50.722;7.078;2023-08-07T08:32:31;9.90;;;3.70;;
11100;SDS011;5604;50.722;7.078;2023-08-07T08:35:00;7.47;;;3.20;;
11100;SDS011;5604;50.722;7.078;2023-08-07T08:37:28;8.20;;;4.03;;
11100;SDS011;5604;50.722;7.078;2023-08-07T08:39:56;11.47;;;3.57;;
11100;SDS011;5604;50.722;7.078;2023-08-07T08:42:25;10.93;;;3.57;;
11100;SDS011;5604;50.722;7.078;2023-08-07T08:44:55;6.47;;;2.90;;
11100;SDS011;5604;50.722;7.078;2023-08-07T08:47:24;7.63;;;2.60;;
11100;SDS011;5604;50.722;7.078;2023-08-07T08:49:57;5.87;;;3.27;;
11100;SDS011;5604;50.722;7.078;2023-08-07T08:52:29;9.93;;;3.23;;
11100;SDS011;5604;50.722;7.078;2023-08-07T08:54:59;7.57;;;3.47;;
11100;SDS011;5604;50.722;7.078;2023-08-07T08:57:27;7.73;;;3.23;;
11100;SDS011;5604;50.722;7.078;2023-08-07T08:59:56;6.27;;;3.23;;
11100;SDS011;5604;50.722;7.078;2023-08-07T09:02:24;9.33;;;3.07;;
11100;SDS011;5604;50.722;7.078;2023-08-07T09:04:52;10.83;;;3.30;;
11100;SDS011;5604;50.722;7.078;2023-08-07T09:07:22;6.73;;;3.27;;
11100;SDS011;5604;50.722;7.078;2023-08-07T09:09:50;5.93;;;2.93;;
11100;SDS011;5604;50.722;7.078;2023-08-07T09:12:19;8.67;;;3.10;;
11100;SDS011;5604;50.722;7.078;2023-08-07T09:14:49;7.30;;;2.70;;
11100;SDS011;5604;50.722;7.078;2023-08-07T09:17:21;9.37;;;2.90;;
11100;SDS011;5604;50.722;7.078;2023-08-07T09:19:51;5.23;;;3.03;;
11100;SDS011;5604;50.722;7.078;2023-08-07T09:22:21;12.53;;;3.00;;
11100;SDS011;5604;50.722;7.078;2023-08-07T09:24:49;6.00;;;2.73;;
11100;SDS011;5604;50.722;7.078;2023-08-07T09:27:18;8.10;;;3.00;;
11100;SDS011;5604;50.722;7.078;2023-08-07T09:29:46;8.27;;;3.40;;
11100;SDS011;5604;50.722;7.078;2023-08-07T09:32:14;7.30;;;2.60;;
11100;SDS011;5604;50.722;7.078;2023-08-07T09:34:42;9.00;;;2.90;;
11100;SDS011;5604;50.722;7.078;2023-08-07T09:37:10;7.17;;;2.87;;
11100;SDS011;5604;50.722;7.078;2023-08-07T09:39:41;6.30;;;2.80;;
11100;SDS011;5604;50.722;7.078;2023-08-07T09:42:12;4.57;;;2.57;;
11100;SDS011;5604;50.722;7.078;2023-08-07T09:44:41;4.57;;;2.33;;
11100;SDS011;5604;50.722;7.078;2023-08-07T09:47:11;6.77;;;2.83;;
11100;SDS011;5604;50.722;7.078;2023-08-07T09:49:41;6.10;;;2.93;;
11100;SDS011;5604;50.722;7.078;2023-08-07T09:52:10;7.47;;;3.10;;
11100;SDS011;5604;50.722;7.078;2023-08-07T09:54:43;5.70;;;2.77;;
11100;SDS011;5604;50.722;7.078;2023-08-07T09:57:11;8.83;;;3.30;;
11100;SDS011;5604;50.722;7.078;2023-08-07T09:59:41;7.53;;;3.07;;
11100;SDS011;5604;50.722;7.078;2023-08-07T10:02:09;5.77;;;2.70;;
11100;SDS011;5604;50.722;7.078;2023-08-07T10:04:38;6.67;;;3.37;;
11100;SDS011;5604;50.722;7.078;2023-08-07T10:07:07;9.40;;;2.90;;
11100;SDS011;5604;50.722;7.078;2023-08-07T10:09:38;6.63;;;3.00;;
11100;SDS011;5604;50.722;7.078;2023-08-07T10:12:08;5.70;;;2.80;;
11100;SDS011;5604;50.722;7.078;2023-08-07T10:14:37;4.20;;;2.53;;
11100;SDS011;5604;50.722;7.078;2023-08-07T10:17:05;7.57;;;3.20;;
11100;SDS011;5604;50.722;7.078;2023-08-07T10:19:36;6.17;;;2.80;;
11100;SDS011;5604;50.722;7.078;2023-08-07T10:22:06;7.57;;;3.03;;
11100;SDS011;5604;50.722;7.078;2023-08-07T10:24:36;7.70;;;2.77;;
11100;SDS011;5604;50.722;7.078;2023-08-07T10:27:09;5.13;;;3.07;;
11100;SDS011;5604;50.722;7.078;2023-08-07T10:29:38;8.10;;;3.63;;
11100;SDS011;5604;50.722;7.078;2023-08-07T10:32:08;4.27;;;2.80;;
11100;SDS011;5604;50.722;7.078;2023-08-07T10:34:38;7.97;;;3.07;;
11100;SDS011;5604;50.722;7.078;2023-08-07T10:37:07;5.73;;;2.93;;
11100;SDS011;5604;50.722;7.078;2023-08-07T10:39:36;8.80;;;2.87;;
11100;SDS011;5604;50.722;7.078;2023-08-07T10:42:05;7.83;;;2.40;;
11100;SDS011;5604;50.722;7.078;2023-08-07T10:44:44;5.70;;;2.30;;
11100;SDS011;5604;50.722;7.078;2023-08-07T10:47:19;4.20;;;2.43;;
11100;SDS011;5604;50.722;7.078;2023-08-07T10:50:01;5.87;;;2.60;;
11100;SDS011;5604;50.722;7.078;2023-08-07T10:52:34;5.70;;;2.67;;
11100;SDS011;5604;50.722;7.078;2023-08-07T10:55:12;6.37;;;2.50;;
11100;SDS011;5604;50.722;7.078;2023-08-07T10:57:41;5.57;;;2.63;;
11100;SDS011;5604;50.722;7.078;2023-08-07T11:00:11;6.57;;;2.83;;
11100;SDS011;5604;50.722;7.078;2023-08-07T11:02:41;5.53;;;2.47;;
11100;SDS011;5604;50.722;7.078;2023-08-07T11:05:09;4.40;;;2.67;;
11100;SDS011;5604;50.722;7.078;2023-08-07T11:07:40;5.60;;;2.53;;
11100;SDS011;5604;50.722;7.078;2023-08-07T11:10:08;5.03;;;2.70;;
11100;SDS011;5604;50.722;7.078;2023-08-07T11:12:36;7.70;;;2.53;;
11100;SDS011;5604;50.722;7.078;2023-08-07T11:15:05;7.87;;;2.73;;
11100;SDS011;5604;50.722;7.078;2023-08-07T11:17:35;6.17;;;2.43;;
11100;SDS011;5604;50.722;7.078;2023-08-07T11:20:04;6.57;;;2.63;;
11100;SDS011;5604;50.722;7.078;2023-08-07T11:22:33;6.83;;;2.30;;
11100;SDS011;5604;50.722;7.078;2023-08-07T11:25:01;5.53;;;2.33;;
11100;SDS011;5604;50.722;7.078;2023-08-07T11:27:31;4.07;;;1.90;;
11100;SDS011;5604;50.722;7.078;2023-08-07T11:29:59;5.27;;;2.10;;
11100;SDS011;5604;50.722;7.078;2023-08-07T11:32:27;4.67;;;2.30;;
11100;SDS011;5604;50.722;7.078;2023-08-07T11:34:57;7.23;;;2.47;;
11100;SDS011;5604;50.722;7.078;2023-08-07T11:37:25;4.80;;;2.00;;
11100;SDS011;5604;50.722;7.078;2023-08-07T11:39:58;7.90;;;2.50;;
11100;SDS011;5604;50.722;7.078;2023-08-07T11:42:28;6.30;;;2.20;;
11100;SDS011;5604;50.722;7.078;2023-08-07T11:44:59;5.03;;;2.23;;
11100;SDS011;5604;50.722;7.078;2023-08-07T11:47:27;5.43;;;2.10;;
11100;SDS011;5604;50.722;7.078;2023-08-07T11:49:57;6.27;;;2.47;;
11100;SDS011;5604;50.722;7.078;2023-08-07T11:52:25;4.20;;;2.37;;
11100;SDS011;5604;50.722;7.078;2023-08-07T11:54:56;4.70;;;2.37;;
11100;SDS011;5604;50.722;7.078;2023-08-07T11:57:24;4.03;;;2.10;;
11100;SDS011;5604;50.722;7.078;2023-08-07T11:59:52;8.10;;;2.80;;
11100;SDS011;5604;50.722;7.078;2023-08-07T12:02:24;5.63;;;2.20;;
11100;SDS011;5604;50.722;7.078;2023-08-07T12:04:58;3.60;;;2.27;;
11100;SDS011;5604;50.722;7.078;2023-08-07T12:07:27;5.10;;;2.30;;
11100;SDS011;5604;50.722;7.078;2023-08-07T12:10:01;5.40;;;2.57;;
11100;SDS011;5604;50.722;7.078;2023-08-07T12:12:32;5.97;;;2.37;;
11100;SDS011;5604;50.722;7.078;2023-08-07T12:15:01;6.00;;;2.40;;
11100;SDS011;5604;50.722;7.078;2023-08-07T12:17:31;6.67;;;2.30;;
11100;SDS011;5604;50.722;7.078;2023-08-07T12:20:02;4.63;;;2.30;;
11100;SDS011;5604;50.722;7.078;2023-08-07T12:22:33;4.77;;;1.90;;
11100;SDS011;5604;50.722;7.078;2023-08-07T12:25:01;3.13;;;1.93;;
11100;SDS011;5604;50.722;7.078;2023-08-07T12:27:29;8.03;;;2.37;;
11100;SDS011;5604;50.722;7.078;2023-08-07T12:29:57;3.40;;;1.90;;
11100;SDS011;5604;50.722;7.078;2023-08-07T12:32:26;3.53;;;2.07;;
11100;SDS011;5604;50.722;7.078;2023-08-07T12:34:54;6.77;;;2.10;;
11100;SDS011;5604;50.722;7.078;2023-08-07T12:37:28;4.53;;;2.30;;
11100;SDS011;5604;50.722;7.078;2023-08-07T12:39:56;4.50;;;2.00;;
11100;SDS011;5604;50.722;7.078;2023-08-07T12:42:44;4.70;;;2.13;;
11100;SDS011;5604;50.722;7.078;2023-08-07T12:45:12;5.83;;;2.10;;
11100;SDS011;5604;50.722;7.078;2023-08-07T12:48:04;4.70;;;2.00;;
11100;SDS011;5604;50.722;7.078;2023-08-07T12:50:33;7.13;;;2.30;;
11100;SDS011;5604;50.722;7.078;2023-08-07T12:53:04;6.40;;;2.23;;
11100;SDS011;5604;50.722;7.078;2023-08-07T12:55:47;7.13;;;2.50;;
11100;SDS011;5604;50.722;7.078;2023-08-07T12:58:16;3.77;;;2.10;;
11100;SDS011;5604;50.722;7.078;2023-08-07T13:00:45;5.57;;;2.13;;
11100;SDS011;5604;50.722;7.078;2023-08-07T13:03:13;3.40;;;2.33;;
11100;SDS011;5604;50.722;7.078;2023-08-07T13:08:31;4.93;;;2.90;;
11100;SDS011;5604;50.722;7.078;2023-08-07T13:11:02;3.87;;;2.07;;
11100;SDS011;5604;50.722;7.078;2023-08-07T13:13:31;5.27;;;2.57;;
11100;SDS011;5604;50.722;7.078;2023-08-07T13:15:59;5.00;;;2.30;;
11100;SDS011;5604;50.722;7.078;2023-08-07T13:18:27;6.03;;;3.10;;
11100;SDS011;5604;50.722;7.078;2023-08-07T13:20:55;4.27;;;2.20;;
11100;SDS011;5604;50.722;7.078;2023-08-07T13:23:24;6.10;;;2.97;;
11100;SDS011;5604;50.722;7.078;2023-08-07T13:25:53;7.97;;;2.50;;
11100;SDS011;5604;50.722;7.078;2023-08-07T13:28:22;6.30;;;2.77;;
11100;SDS011;5604;50.722;7.078;2023-08-07T13:30:50;5.30;;;2.07;;
11100;SDS011;5604;50.722;7.078;2023-08-07T13:33:20;3.37;;;2.20;;
11100;SDS011;5604;50.722;7.078;2023-08-07T13:35:49;6.30;;;2.60;;
11100;SDS011;5604;50.722;7.078;2023-08-07T13:38:17;11.93;;;3.00;;
11100;SDS011;5604;50.722;7.078;2023-08-07T13:40:46;4.90;;;2.60;;
11100;SDS011;5604;50.722;7.078;2023-08-07T13:43:15;5.63;;;2.83;;
11100;SDS011;5604;50.722;7.078;2023-08-07T13:45:43;4.77;;;3.07;;
11100;SDS011;5604;50.722;7.078;2023-08-07T13:48:12;7.20;;;3.27;;
11100;SDS011;5604;50.722;7.078;2023-08-07T13:50:40;4.63;;;2.90;;
11100;SDS011;5604;50.722;7.078;2023-08-07T13:53:08;8.10;;;4.20;;
11100;SDS011;5604;50.722;7.078;2023-08-07T13:55:41;7.43;;;4.87;;
11100;SDS011;5604;50.722;7.078;2023-08-07T13:58:10;6.47;;;4.63;;
11100;SDS011;5604;50.722;7.078;2023-08-07T14:00:39;9.47;;;5.13;;
11100;SDS011;5604;50.722;7.078;2023-08-07T14:03:08;13.07;;;5.77;;
11100;SDS011;5604;50.722;7.078;2023-08-07T14:05:42;8.13;;;3.57;;
11100;SDS011;5604;50.722;7.078;2023-08-07T14:08:10;5.97;;;3.13;;
11100;SDS011;5604;50.722;7.078;2023-08-07T14:10:38;8.37;;;3.37;;
11100;SDS011;5604;50.722;7.078;2023-08-07T14:13:08;5.47;;;3.00;;
11100;SDS011;5604;50.722;7.078;2023-08-07T14:15:39;6.93;;;2.90;;
11100;SDS011;5604;50.722;7.078;2023-08-07T14:18:08;4.93;;;2.60;;
11100;SDS011;5604;50.722;7.078;2023-08-07T14:20:37;4.13;;;2.63;;
11100;SDS011;5604;50.722;7.078;2023-08-07T14:23:22;5.87;;;2.67;;
11100;SDS011;5604;50.722;7.078;2023-08-07T14:25:50;5.77;;;2.63;;
11100;SDS011;5604;50.722;7.078;2023-08-07T14:28:19;4.30;;;2.20;;
11100;SDS011;5604;50.722;7.078;2023-08-07T14:30:49;3.60;;;2.37;;
11100;SDS011;5604;50.722;7.078;2023-08-07T14:33:18;11.63;;;2.70;;
11100;SDS011;5604;50.722;7.078;2023-08-07T14:35:46;6.07;;;2.60;;
11100;SDS011;5604;50.722;7.078;2023-08-07T14:38:14;5.57;;;2.27;;
11100;SDS011;5604;50.722;7.078;2023-08-07T14:40:42;4.27;;;2.20;;
11100;SDS011;5604;50.722;7.078;2023-08-07T14:43:10;5.60;;;2.67;;
11100;SDS011;5604;50.722;7.078;2023-08-07T14:45:39;5.07;;;2.07;;
11100;SDS011;5604;50.722;7.078;2023-08-07T14:48:09;5.70;;;2.30;;
11100;SDS011;5604;50.722;7.078;2023-08-07T14:50:37;4.43;;;2.47;;
11100;SDS011;5604;50.722;7.078;2023-08-07T14:53:05;3.43;;;2.10;;
11100;SDS011;5604;50.722;7.078;2023-08-07T14:55:33;3.30;;;1.90;;
11100;SDS011;5604;50.722;7.078;2023-08-07T14:58:01;2.97;;;2.00;;
11100;SDS011;5604;50.722;7.078;2023-08-07T15:00:29;4.80;;;2.03;;
11100;SDS011;5604;50.722;7.078;2023-08-07T15:02:58;2.50;;;1.70;;
11100;SDS011;5604;50.722;7.078;2023-08-07T15:05:27;5.20;;;2.10;;
11100;SDS011;5604;50.722;7.078;2023-08-07T15:07:56;4.53;;;2.40;;
11100;SDS011;5604;50.722;7.078;2023-08-07T15:10:25;2.67;;;1.70;;
11100;SDS011;5604;50.722;7.078;2023-08-07T15:12:53;4.67;;;2.33;;